sensor_id;sensor_type;location;lat;lon;timestamp;P1;durP1;ratioP1;P2;durP2;ratioP2
76121;SDS011;70471;53.200;6.080;2024-02-21T00:03:12;0.93;;;0.30;;
76121;SDS011;70471;53.200;6.080;2024-02-21T00:08:05;1.27;;;0.40;;
76121;SDS011;70471;53.200;6.080;2024-02-21T00:12:58;2.28;;;0.30;;
76121;SDS011;70471;53.200;6.080;2024-02-21T00:17:52;1.15;;;0.40;;
76121;SDS011;70471;53.200;6.080;2024-02-21T00:22:44;1.55;;;0.60;;
76121;SDS011;70471;53.200;6.080;2024-02-21T00:27:36;1.50;;;0.40;;
76121;SDS011;70471;53.200;6.080;2024-02-21T00:32:29;1.63;;;0.38;;
76121;SDS011;70471;53.200;6.080;2024-02-21T00:37:22;1.00;;;0.47;;
76121;SDS011;70471;53.200;6.080;2024-02-21T00:42:14;0.95;;;0.30;;
76121;SDS011;70471;53.200;6.080;2024-02-21T00:47:07;1.75;;;0.50;;
76121;SDS011;70471;53.200;6.080;2024-02-21T00:51:59;2.85;;;0.65;;
76121;SDS011;70471;53.200;6.080;2024-02-21T00:56:53;1.65;;;0.43;;
76121;SDS011;70471;53.200;6.080;2024-02-21T01:01:45;2.20;;;0.45;;
76121;SDS011;70471;53.200;6.080;2024-02-21T01:06:37;2.00;;;0.75;;
76121;SDS011;70471;53.200;6.080;2024-02-21T01:11:33;1.05;;;0.35;;
76121;SDS011;70471;53.200;6.080;2024-02-21T01:16:27;2.05;;;0.55;;
76121;SDS011;70471;53.200;6.080;2024-02-21T01:21:20;1.40;;;0.40;;
76121;SDS011;70471;53.200;6.080;2024-02-21T01:26:12;1.67;;;0.50;;
76121;SDS011;70471;53.200;6.080;2024-02-21T01:31:05;2.50;;;0.68;;
76121;SDS011;70471;53.200;6.080;2024-02-21T01:35:59;1.40;;;0.50;;
76121;SDS011;70471;53.200;6.080;2024-02-21T01:40:51;2.42;;;0.77;;
76121;SDS011;70471;53.200;6.080;2024-02-21T01:45:45;0.32;;;0.30;;
76121;SDS011;70471;53.200;6.080;2024-02-21T01:55:34;1.55;;;0.52;;
76121;SDS011;70471;53.200;6.080;2024-02-21T02:00:27;1.67;;;0.75;;
76121;SDS011;70471;53.200;6.080;2024-02-21T02:05:20;2.35;;;0.70;;
76121;SDS011;70471;53.200;6.080;2024-02-21T02:10:12;4.38;;;0.65;;
76121;SDS011;70471;53.200;6.080;2024-02-21T02:15:06;2.38;;;0.65;;
76121;SDS011;70471;53.200;6.080;2024-02-21T02:19:58;2.42;;;0.82;;
76121;SDS011;70471;53.200;6.080;2024-02-21T02:24:52;1.48;;;0.38;;
76121;SDS011;70471;53.200;6.080;2024-02-21T02:29:45;0.88;;;0.40;;
76121;SDS011;70471;53.200;6.080;2024-02-21T02:34:37;1.73;;;0.82;;
76121;SDS011;70471;53.200;6.080;2024-02-21T02:39:29;1.35;;;0.55;;
76121;SDS011;70471;53.200;6.080;2024-02-21T02:44:23;1.50;;;0.52;;
76121;SDS011;70471;53.200;6.080;2024-02-21T02:49:15;1.25;;;0.35;;
76121;SDS011;70471;53.200;6.080;2024-02-21T02:54:08;1.70;;;0.70;;
76121;SDS011;70471;53.200;6.080;2024-02-21T02:59:00;1.90;;;0.50;;
76121;SDS011;70471;53.200;6.080;2024-02-21T03:03:55;1.75;;;0.50;;
76121;SDS011;70471;53.200;6.080;2024-02-21T03:08:47;1.23;;;0.43;;
76121;SDS011;70471;53.200;6.080;2024-02-21T03:13:40;1.38;;;0.60;;
76121;SDS011;70471;53.200;6.080;2024-02-21T03:18:32;3.17;;;0.68;;
76121;SDS011;70471;53.200;6.080;2024-02-21T03:23:26;1.70;;;0.45;;
76121;SDS011;70471;53.200;6.080;2024-02-21T03:28:21;0.85;;;0.50;;
76121;SDS011;70471;53.200;6.080;2024-02-21T03:33:13;2.08;;;0.43;;
76121;SDS011;70471;53.200;6.080;2024-02-21T03:38:06;2.28;;;0.60;;
76121;SDS011;70471;53.200;6.080;2024-02-21T03:43:01;2.13;;;1.00;;
76121;SDS011;70471;53.200;6.080;2024-02-21T03:47:53;2.25;;;0.50;;
76121;SDS011;70471;53.200;6.080;2024-02-21T03:52:46;2.08;;;0.60;;
76121;SDS011;70471;53.200;6.080;2024-02-21T03:57:38;1.58;;;0.40;;
76121;SDS011;70471;53.200;6.080;2024-02-21T04:02:32;2.13;;;0.70;;
76121;SDS011;70471;53.200;6.080;2024-02-21T04:07:24;1.45;;;0.52;;
76121;SDS011;70471;53.200;6.080;2024-02-21T04:12:16;2.30;;;0.82;;
76121;SDS011;70471;53.200;6.080;2024-02-21T04:17:08;3.03;;;0.68;;
76121;SDS011;70471;53.200;6.080;2024-02-21T04:22:02;0.90;;;0.50;;
76121;SDS011;70471;53.200;6.080;2024-02-21T04:26:55;2.55;;;0.60;;
76121;SDS011;70471;53.200;6.080;2024-02-21T04:31:47;1.65;;;0.57;;
76121;SDS011;70471;53.200;6.080;2024-02-21T04:36:39;1.75;;;0.57;;
76121;SDS011;70471;53.200;6.080;2024-02-21T04:41:33;3.05;;;0.52;;
76121;SDS011;70471;53.200;6.080;2024-02-21T04:46:24;2.70;;;0.60;;
76121;SDS011;70471;53.200;6.080;2024-02-21T04:51:16;2.38;;;0.63;;
76121;SDS011;70471;53.200;6.080;2024-02-21T04:56:08;2.05;;;0.70;;
76121;SDS011;70471;53.200;6.080;2024-02-21T05:01:03;2.97;;;0.63;;
76121;SDS011;70471;53.200;6.080;2024-02-21T05:05:55;2.97;;;0.50;;
76121;SDS011;70471;53.200;6.080;2024-02-21T05:10:47;1.65;;;0.50;;
76121;SDS011;70471;53.200;6.080;2024-02-21T05:15:39;1.23;;;0.47;;
76121;SDS011;70471;53.200;6.080;2024-02-21T05:20:33;0.82;;;0.40;;
76121;SDS011;70471;53.200;6.080;2024-02-21T05:25:26;1.27;;;0.40;;
76121;SDS011;70471;53.200;6.080;2024-02-21T05:30:18;3.70;;;0.60;;
76121;SDS011;70471;53.200;6.080;2024-02-21T05:35:10;2.63;;;0.57;;
76121;SDS011;70471;53.200;6.080;2024-02-21T05:40:04;1.48;;;0.40;;
76121;SDS011;70471;53.200;6.080;2024-02-21T05:44:57;1.10;;;0.40;;
76121;SDS011;70471;53.200;6.080;2024-02-21T05:49:49;3.35;;;0.80;;
76121;SDS011;70471;53.200;6.080;2024-02-21T05:54:43;1.63;;;0.38;;
76121;SDS011;70471;53.200;6.080;2024-02-21T05:59:38;0.73;;;0.28;;
76121;SDS011;70471;53.200;6.080;2024-02-21T06:04:32;1.42;;;0.55;;
76121;SDS011;70471;53.200;6.080;2024-02-21T06:09:24;2.10;;;0.68;;
76121;SDS011;70471;53.200;6.080;2024-02-21T06:14:15;2.33;;;0.60;;
76121;SDS011;70471;53.200;6.080;2024-02-21T06:19:09;3.17;;;0.77;;
76121;SDS011;70471;53.200;6.080;2024-02-21T06:24:01;3.03;;;1.13;;
76121;SDS011;70471;53.200;6.080;2024-02-21T06:28:54;1.20;;;0.60;;
76121;SDS011;70471;53.200;6.080;2024-02-21T06:33:46;1.90;;;0.65;;
76121;SDS011;70471;53.200;6.080;2024-02-21T06:38:40;1.80;;;0.57;;
76121;SDS011;70471;53.200;6.080;2024-02-21T06:43:31;3.03;;;0.65;;
76121;SDS011;70471;53.200;6.080;2024-02-21T06:48:24;4.18;;;0.80;;
76121;SDS011;70471;53.200;6.080;2024-02-21T06:53:16;1.70;;;0.60;;
76121;SDS011;70471;53.200;6.080;2024-02-21T06:58:10;1.27;;;0.60;;
76121;SDS011;70471;53.200;6.080;2024-02-21T07:03:03;3.00;;;0.93;;
76121;SDS011;70471;53.200;6.080;2024-02-21T07:07:55;1.17;;;0.70;;
76121;SDS011;70471;53.200;6.080;2024-02-21T07:12:47;2.28;;;0.57;;
76121;SDS011;70471;53.200;6.080;2024-02-21T07:17:41;2.22;;;0.60;;
76121;SDS011;70471;53.200;6.080;2024-02-21T07:22:33;1.48;;;0.60;;
76121;SDS011;70471;53.200;6.080;2024-02-21T07:27:25;3.05;;;1.05;;
76121;SDS011;70471;53.200;6.080;2024-02-21T07:32:21;2.33;;;0.85;;
76121;SDS011;70471;53.200;6.080;2024-02-21T07:37:14;1.95;;;0.82;;
76121;SDS011;70471;53.200;6.080;2024-02-21T07:42:06;2.00;;;0.90;;
76121;SDS011;70471;53.200;6.080;2024-02-21T07:46:58;1.90;;;0.85;;
76121;SDS011;70471;53.200;6.080;2024-02-21T07:51:50;3.20;;;1.10;;
76121;SDS011;70471;53.200;6.080;2024-02-21T07:56:44;1.58;;;0.65;;
76121;SDS011;70471;53.200;6.080;2024-02-21T08:01:37;1.27;;;0.80;;
76121;SDS011;70471;53.200;6.080;2024-02-21T08:06:30;2.10;;;0.75;;
76121;SDS011;70471;53.200;6.080;2024-02-21T08:11:23;3.28;;;0.60;;
76121;SDS011;70471;53.200;6.080;2024-02-21T08:16:16;2.78;;;1.05;;
76121;SDS011;70471;53.200;6.080;2024-02-21T08:21:09;2.38;;;1.13;;
76121;SDS011;70471;53.200;6.080;2024-02-21T08:26:02;2.08;;;0.60;;
76121;SDS011;70471;53.200;6.080;2024-02-21T08:30:55;2.80;;;1.17;;
76121;SDS011;70471;53.200;6.080;2024-02-21T08:35:48;1.63;;;0.63;;
76121;SDS011;70471;53.200;6.080;2024-02-21T08:40:41;1.83;;;0.70;;
76121;SDS011;70471;53.200;6.080;2024-02-21T08:45:33;3.50;;;0.52;;
76121;SDS011;70471;53.200;6.080;2024-02-21T08:50:25;0.90;;;0.50;;
76121;SDS011;70471;53.200;6.080;2024-02-21T08:55:19;2.38;;;0.77;;
76121;SDS011;70471;53.200;6.080;2024-02-21T09:00:11;1.77;;;0.57;;
76121;SDS011;70471;53.200;6.080;2024-02-21T09:05:05;2.03;;;0.80;;
76121;SDS011;70471;53.200;6.080;2024-02-21T09:09:58;1.55;;;0.60;;
76121;SDS011;70471;53.200;6.080;2024-02-21T09:14:51;1.48;;;0.63;;
76121;SDS011;70471;53.200;6.080;2024-02-21T09:19:43;1.98;;;0.90;;
76121;SDS011;70471;53.200;6.080;2024-02-21T09:24:35;2.15;;;1.10;;
76121;SDS011;70471;53.200;6.080;2024-02-21T09:29:27;1.42;;;1.05;;
76121;SDS011;70471;53.200;6.080;2024-02-21T09:34:21;1.33;;;1.13;;
76121;SDS011;70471;53.200;6.080;2024-02-21T09:39:13;2.38;;;1.38;;
76121;SDS011;70471;53.200;6.080;2024-02-21T09:44:08;1.67;;;1.17;;
76121;SDS011;70471;53.200;6.080;2024-02-21T09:49:08;1.75;;;1.27;;
76121;SDS011;70471;53.200;6.080;2024-02-21T09:54:14;1.83;;;1.27;;
76121;SDS011;70471;53.200;6.080;2024-02-21T09:59:08;1.33;;;0.98;;
76121;SDS011;70471;53.200;6.080;2024-02-21T10:04:01;1.95;;;1.10;;
76121;SDS011;70471;53.200;6.080;2024-02-21T10:08:55;1.95;;;1.10;;
76121;SDS011;70471;53.200;6.080;2024-02-21T10:13:49;1.67;;;1.23;;
76121;SDS011;70471;53.200;6.080;2024-02-21T10:18:41;2.30;;;1.17;;
76121;SDS011;70471;53.200;6.080;2024-02-21T10:23:43;1.83;;;1.40;;
76121;SDS011;70471;53.200;6.080;2024-02-21T10:28:36;2.20;;;1.30;;
76121;SDS011;70471;53.200;6.080;2024-02-21T10:33:33;1.83;;;1.48;;
76121;SDS011;70471;53.200;6.080;2024-02-21T10:38:26;2.08;;;1.50;;
76121;SDS011;70471;53.200;6.080;2024-02-21T10:43:18;2.03;;;1.38;;
76121;SDS011;70471;53.200;6.080;2024-02-21T10:48:14;2.25;;;1.40;;
76121;SDS011;70471;53.200;6.080;2024-02-21T10:53:11;1.48;;;1.27;;
76121;SDS011;70471;53.200;6.080;2024-02-21T10:58:15;1.20;;;1.10;;
76121;SDS011;70471;53.200;6.080;2024-02-21T11:03:08;1.42;;;1.00;;
76121;SDS011;70471;53.200;6.080;2024-02-21T11:08:02;2.20;;;1.10;;
76121;SDS011;70471;53.200;6.080;2024-02-21T11:13:06;1.70;;;1.50;;
76121;SDS011;70471;53.200;6.080;2024-02-21T11:17:59;1.42;;;1.05;;
76121;SDS011;70471;53.200;6.080;2024-02-21T11:22:51;2.97;;;1.63;;
76121;SDS011;70471;53.200;6.080;2024-02-21T11:27:45;2.65;;;1.50;;
76121;SDS011;70471;53.200;6.080;2024-02-21T11:32:39;2.03;;;1.00;;
76121;SDS011;70471;53.200;6.080;2024-02-21T11:37:33;1.40;;;1.20;;
76121;SDS011;70471;53.200;6.080;2024-02-21T11:42:27;1.60;;;1.00;;
76121;SDS011;70471;53.200;6.080;2024-02-21T11:47:20;3.03;;;1.38;;
76121;SDS011;70471;53.200;6.080;2024-02-21T11:52:14;1.50;;;1.17;;
76121;SDS011;70471;53.200;6.080;2024-02-21T11:57:06;1.95;;;1.55;;
76121;SDS011;70471;53.200;6.080;2024-02-21T12:01:59;1.30;;;1.20;;
76121;SDS011;70471;53.200;6.080;2024-02-21T12:06:53;1.42;;;1.33;;
76121;SDS011;70471;53.200;6.080;2024-02-21T12:11:56;1.63;;;1.30;;
76121;SDS011;70471;53.200;6.080;2024-02-21T12:16:50;3.80;;;1.65;;
76121;SDS011;70471;53.200;6.080;2024-02-21T12:21:42;2.83;;;1.48;;
76121;SDS011;70471;53.200;6.080;2024-02-21T12:26:35;3.30;;;1.17;;
76121;SDS011;70471;53.200;6.080;2024-02-21T12:31:29;1.58;;;1.23;;
76121;SDS011;70471;53.200;6.080;2024-02-21T12:36:21;1.48;;;1.08;;
76121;SDS011;70471;53.200;6.080;2024-02-21T12:41:13;2.70;;;1.75;;
76121;SDS011;70471;53.200;6.080;2024-02-21T12:46:06;2.40;;;1.45;;
76121;SDS011;70471;53.200;6.080;2024-02-21T12:51:02;2.65;;;1.70;;
76121;SDS011;70471;53.200;6.080;2024-02-21T12:55:56;3.00;;;1.83;;
76121;SDS011;70471;53.200;6.080;2024-02-21T13:00:48;2.78;;;1.60;;
76121;SDS011;70471;53.200;6.080;2024-02-21T13:05:41;3.78;;;1.70;;
76121;SDS011;70471;53.200;6.080;2024-02-21T13:10:34;1.48;;;1.10;;
76121;SDS011;70471;53.200;6.080;2024-02-21T13:15:27;2.60;;;1.83;;
76121;SDS011;70471;53.200;6.080;2024-02-21T13:20:19;3.15;;;1.48;;
76121;SDS011;70471;53.200;6.080;2024-02-21T13:25:12;1.20;;;1.10;;
76121;SDS011;70471;53.200;6.080;2024-02-21T13:30:10;1.90;;;1.38;;
76121;SDS011;70471;53.200;6.080;2024-02-21T13:35:06;2.67;;;1.55;;
76121;SDS011;70471;53.200;6.080;2024-02-21T13:40:02;2.70;;;1.73;;
76121;SDS011;70471;53.200;6.080;2024-02-21T13:44:54;2.42;;;1.60;;
76121;SDS011;70471;53.200;6.080;2024-02-21T13:49:48;2.65;;;1.50;;
76121;SDS011;70471;53.200;6.080;2024-02-21T13:54:41;2.10;;;1.20;;
76121;SDS011;70471;53.200;6.080;2024-02-21T13:59:33;1.63;;;1.10;;
76121;SDS011;70471;53.200;6.080;2024-02-21T14:04:25;2.35;;;1.35;;
76121;SDS011;70471;53.200;6.080;2024-02-21T14:09:19;1.75;;;1.30;;
76121;SDS011;70471;53.200;6.080;2024-02-21T14:14:11;1.30;;;1.08;;
76121;SDS011;70471;53.200;6.080;2024-02-21T14:19:05;1.95;;;1.05;;
76121;SDS011;70471;53.200;6.080;2024-02-21T14:23:58;3.30;;;1.77;;
76121;SDS011;70471;53.200;6.080;2024-02-21T14:28:54;2.42;;;1.27;;
76121;SDS011;70471;53.200;6.080;2024-02-21T14:33:47;1.25;;;1.05;;
76121;SDS011;70471;53.200;6.080;2024-02-21T14:38:39;8.55;;;1.20;;
76121;SDS011;70471;53.200;6.080;2024-02-21T14:43:31;3.42;;;1.10;;
76121;SDS011;70471;53.200;6.080;2024-02-21T14:48:26;1.48;;;0.98;;
76121;SDS011;70471;53.200;6.080;2024-02-21T14:53:19;1.15;;;1.00;;
76121;SDS011;70471;53.200;6.080;2024-02-21T14:58:11;1.52;;;1.20;;
76121;SDS011;70471;53.200;6.080;2024-02-21T15:03:04;1.40;;;1.02;;
76121;SDS011;70471;53.200;6.080;2024-02-21T15:07:58;2.20;;;1.20;;
76121;SDS011;70471;53.200;6.080;2024-02-21T15:12:50;1.50;;;0.88;;
76121;SDS011;70471;53.200;6.080;2024-02-21T15:17:42;1.98;;;1.17;;
76121;SDS011;70471;53.200;6.080;2024-02-21T15:22:34;1.67;;;1.00;;
76121;SDS011;70471;53.200;6.080;2024-02-21T15:27:28;1.52;;;1.13;;
76121;SDS011;70471;53.200;6.080;2024-02-21T15:32:23;1.80;;;1.17;;
76121;SDS011;70471;53.200;6.080;2024-02-21T15:37:16;1.65;;;1.15;;
76121;SDS011;70471;53.200;6.080;2024-02-21T15:42:08;1.88;;;1.00;;
76121;SDS011;70471;53.200;6.080;2024-02-21T15:51:52;2.17;;;1.02;;
76121;SDS011;70471;53.200;6.080;2024-02-21T15:56:44;1.88;;;1.17;;
76121;SDS011;70471;53.200;6.080;2024-02-21T16:01:36;2.03;;;1.00;;
76121;SDS011;70471;53.200;6.080;2024-02-21T16:06:30;2.30;;;0.90;;
76121;SDS011;70471;53.200;6.080;2024-02-21T16:11:22;1.20;;;0.85;;
76121;SDS011;70471;53.200;6.080;2024-02-21T16:16:14;2.78;;;1.00;;
76121;SDS011;70471;53.200;6.080;2024-02-21T16:21:06;1.25;;;1.05;;
76121;SDS011;70471;53.200;6.080;2024-02-21T16:26:03;1.27;;;0.80;;
76121;SDS011;70471;53.200;6.080;2024-02-21T16:30:55;1.48;;;0.82;;
76121;SDS011;70471;53.200;6.080;2024-02-21T16:35:50;1.63;;;0.95;;
76121;SDS011;70471;53.200;6.080;2024-02-21T16:41:09;1.60;;;0.75;;
76121;SDS011;70471;53.200;6.080;2024-02-21T16:46:16;1.08;;;0.60;;
76121;SDS011;70471;53.200;6.080;2024-02-21T16:51:10;1.48;;;0.85;;
76121;SDS011;70471;53.200;6.080;2024-02-21T16:56:03;1.13;;;1.02;;
76121;SDS011;70471;53.200;6.080;2024-02-21T17:01:01;2.20;;;0.80;;
76121;SDS011;70471;53.200;6.080;2024-02-21T17:05:57;1.42;;;0.95;;
76121;SDS011;70471;53.200;6.080;2024-02-21T17:10:54;1.30;;;1.02;;
76121;SDS011;70471;53.200;6.080;2024-02-21T17:15:52;2.13;;;0.85;;
76121;SDS011;70471;53.200;6.080;2024-02-21T17:20:46;2.50;;;0.82;;
76121;SDS011;70471;53.200;6.080;2024-02-21T17:25:41;0.93;;;0.77;;
76121;SDS011;70471;53.200;6.080;2024-02-21T17:30:34;1.88;;;0.75;;
76121;SDS011;70471;53.200;6.080;2024-02-21T17:35:30;1.00;;;0.63;;
76121;SDS011;70471;53.200;6.080;2024-02-21T17:40:38;2.10;;;1.10;;
76121;SDS011;70471;53.200;6.080;2024-02-21T17:45:31;1.65;;;0.82;;
76121;SDS011;70471;53.200;6.080;2024-02-21T17:50:23;2.13;;;0.90;;
76121;SDS011;70471;53.200;6.080;2024-02-21T17:55:19;0.98;;;0.68;;
76121;SDS011;70471;53.200;6.080;2024-02-21T18:00:20;1.58;;;0.68;;
76121;SDS011;70471;53.200;6.080;2024-02-21T18:05:15;1.23;;;0.60;;
76121;SDS011;70471;53.200;6.080;2024-02-21T18:10:10;1.02;;;0.80;;
76121;SDS011;70471;53.200;6.080;2024-02-21T18:15:03;1.77;;;0.65;;
76121;SDS011;70471;53.200;6.080;2024-02-21T18:19:57;0.93;;;0.63;;
76121;SDS011;70471;53.200;6.080;2024-02-21T18:24:54;1.00;;;0.75;;
76121;SDS011;70471;53.200;6.080;2024-02-21T18:29:47;1.55;;;0.55;;
76121;SDS011;70471;53.200;6.080;2024-02-21T18:34:46;1.88;;;0.60;;
76121;SDS011;70471;53.200;6.080;2024-02-21T18:39:49;0.88;;;0.60;;
76121;SDS011;70471;53.200;6.080;2024-02-21T18:44:42;0.43;;;0.43;;
76121;SDS011;70471;53.200;6.080;2024-02-21T18:49:49;0.93;;;0.40;;
76121;SDS011;70471;53.200;6.080;2024-02-21T18:54:44;0.73;;;0.52;;
76121;SDS011;70471;53.200;6.080;2024-02-21T18:59:43;0.52;;;0.50;;
76121;SDS011;70471;53.200;6.080;2024-02-21T19:04:36;0.47;;;0.45;;
76121;SDS011;70471;53.200;6.080;2024-02-21T19:09:30;2.28;;;0.80;;
76121;SDS011;70471;53.200;6.080;2024-02-21T19:14:27;1.35;;;0.45;;
76121;SDS011;70471;53.200;6.080;2024-02-21T19:19:21;0.90;;;0.40;;
76121;SDS011;70471;53.200;6.080;2024-02-21T19:24:17;0.98;;;0.70;;
76121;SDS011;70471;53.200;6.080;2024-02-21T19:29:09;0.93;;;0.80;;
76121;SDS011;70471;53.200;6.080;2024-02-21T19:34:06;1.95;;;0.60;;
76121;SDS011;70471;53.200;6.080;2024-02-21T19:39:00;2.00;;;0.70;;
76121;SDS011;70471;53.200;6.080;2024-02-21T19:43:53;0.90;;;0.70;;
76121;SDS011;70471;53.200;6.080;2024-02-21T19:48:48;0.70;;;0.60;;
76121;SDS011;70471;53.200;6.080;2024-02-21T19:53:53;0.40;;;0.35;;
76121;SDS011;70471;53.200;6.080;2024-02-21T19:58:47;0.60;;;0.40;;
76121;SDS011;70471;53.200;6.080;2024-02-21T20:03:40;1.08;;;0.50;;
76121;SDS011;70471;53.200;6.080;2024-02-21T20:08:33;1.17;;;0.55;;
76121;SDS011;70471;53.200;6.080;2024-02-21T20:13:30;1.02;;;0.63;;
76121;SDS011;70471;53.200;6.080;2024-02-21T20:18:37;1.52;;;0.63;;
76121;SDS011;70471;53.200;6.080;2024-02-21T20:23:28;0.57;;;0.40;;
76121;SDS011;70471;53.200;6.080;2024-02-21T20:28:21;0.80;;;0.40;;
76121;SDS011;70471;53.200;6.080;2024-02-21T20:33:15;0.35;;;0.30;;
76121;SDS011;70471;53.200;6.080;2024-02-21T20:38:08;0.50;;;0.40;;
76121;SDS011;70471;53.200;6.080;2024-02-21T20:43:02;0.45;;;0.45;;
76121;SDS011;70471;53.200;6.080;2024-02-21T20:47:56;1.00;;;0.50;;
76121;SDS011;70471;53.200;6.080;2024-02-21T20:53:05;0.63;;;0.40;;
76121;SDS011;70471;53.200;6.080;2024-02-21T20:58:00;0.60;;;0.35;;
76121;SDS011;70471;53.200;6.080;2024-02-21T21:03:02;0.57;;;0.32;;
76121;SDS011;70471;53.200;6.080;2024-02-21T21:07:55;0.38;;;0.32;;
76121;SDS011;70471;53.200;6.080;2024-02-21T21:12:49;0.95;;;0.30;;
76121;SDS011;70471;53.200;6.080;2024-02-21T21:17:43;1.95;;;0.40;;
76121;SDS011;70471;53.200;6.080;2024-02-21T21:22:35;1.08;;;0.30;;
76121;SDS011;70471;53.200;6.080;2024-02-21T21:27:27;0.30;;;0.30;;
76121;SDS011;70471;53.200;6.080;2024-02-21T21:32:20;0.40;;;0.40;;
76121;SDS011;70471;53.200;6.080;2024-02-21T21:37:13;1.33;;;0.30;;
76121;SDS011;70471;53.200;6.080;2024-02-21T21:42:05;0.65;;;0.30;;
76121;SDS011;70471;53.200;6.080;2024-02-21T21:46:58;1.52;;;0.40;;
76121;SDS011;70471;53.200;6.080;2024-02-21T21:51:51;0.55;;;0.30;;
76121;SDS011;70471;53.200;6.080;2024-02-21T21:56:44;0.80;;;0.40;;
76121;SDS011;70471;53.200;6.080;2024-02-21T22:01:35;0.30;;;0.30;;
76121;SDS011;70471;53.200;6.080;2024-02-21T22:06:27;0.45;;;0.25;;
76121;SDS011;70471;53.200;6.080;2024-02-21T22:11:22;0.20;;;0.20;;
76121;SDS011;70471;53.200;6.080;2024-02-21T22:16:17;0.93;;;0.35;;
76121;SDS011;70471;53.200;6.080;2024-02-21T22:21:12;0.40;;;0.25;;
76121;SDS011;70471;53.200;6.080;2024-02-21T22:26:05;0.43;;;0.15;;
76121;SDS011;70471;53.200;6.080;2024-02-21T22:31:01;0.88;;;0.25;;
76121;SDS011;70471;53.200;6.080;2024-02-21T22:35:57;0.20;;;0.20;;
76121;SDS011;70471;53.200;6.080;2024-02-21T22:40:49;0.17;;;0.15;;
76121;SDS011;70471;53.200;6.080;2024-02-21T22:45:42;0.25;;;0.17;;
76121;SDS011;70471;53.200;6.080;2024-02-21T22:50:36;0.50;;;0.20;;
76121;SDS011;70471;53.200;6.080;2024-02-21T22:55:28;0.28;;;0.28;;
76121;SDS011;70471;53.200;6.080;2024-02-21T23:00:20;0.20;;;0.20;;
76121;SDS011;70471;53.200;6.080;2024-02-21T23:05:12;0.20;;;0.20;;
76121;SDS011;70471;53.200;6.080;2024-02-21T23:10:06;0.20;;;0.20;;
76121;SDS011;70471;53.200;6.080;2024-02-21T23:14:58;0.10;;;0.10;;
76121;SDS011;70471;53.200;6.080;2024-02-21T23:19:50;0.30;;;0.20;;
76121;SDS011;70471;53.200;6.080;2024-02-21T23:24:43;0.10;;;0.10;;
76121;SDS011;70471;53.200;6.080;2024-02-21T23:29:36;0.80;;;0.25;;
76121;SDS011;70471;53.200;6.080;2024-02-21T23:34:28;0.10;;;0.10;;
76121;SDS011;70471;53.200;6.080;2024-02-21T23:39:21;0.35;;;0.20;;
76121;SDS011;70471;53.200;6.080;2024-02-21T23:44:13;0.10;;;0.10;;
76121;SDS011;70471;53.200;6.080;2024-02-21T23:49:07;0.20;;;0.10;;
76121;SDS011;70471;53.200;6.080;2024-02-21T23:54:00;0.10;;;0.10;;
76121;SDS011;70471;53.200;6.080;2024-02-21T23:58:52;0.00;;;0.00;;
